Time;durP1;ratioP1;P1;durP2;ratioP2;P2;SDS_P1;SDS_P2;PMS_P1;PMS_P2;Temp;Humidity;BMP_temperature;BMP_pressure;BME280_temperature;BME280_humidity;BME280_pressure;Samples;Min_cycle;Max_cycle;Signal;HPM_P1;HPM_P2
2022/05/15 00:01:31;;;;;;;;;;;16.50;91.00;;;;;;8403023;28;19920;-72
2022/05/15 00:05:32;;;;;;;;;;;16.50;91.00;;;;;;8378980;28;19920;-72
2022/05/15 00:09:34;;;;;;;;;;;16.40;91.00;;;;;;8368364;28;20160;-72
2022/05/15 00:13:36;;;;;;;;;;;16.30;91.00;;;;;;8391661;28;19970;-72
2022/05/15 00:17:38;;;;;;;;;;;16.30;91.00;;;;;;8362164;28;19968;-72
2022/05/15 00:21:40;;;;;;;;;;;16.20;91.10;;;;;;8373209;28;20305;-72
2022/05/15 00:25:41;;;;;;;;;;;16.10;91.00;;;;;;8383159;28;19991;-72
2022/05/15 00:29:43;;;;;;;;;;;16.10;91.00;;;;;;8372833;28;19924;-72
2022/05/15 00:33:45;;;;;;;;;;;16.10;91.10;;;;;;8374020;28;19925;-72
2022/05/15 00:37:46;;;;;;;;;;;16.00;91.00;;;;;;8378815;28;19925;-72
2022/05/15 00:41:48;;;;;;;;;;;16.00;91.00;;;;;;8379899;28;20375;-72
2022/05/15 00:45:50;;;;;;;;;;;15.90;91.00;;;;;;8373892;28;20343;-72
2022/05/15 00:49:52;;;;;;;;;;;15.90;91.10;;;;;;8395016;28;19928;-72
2022/05/15 00:53:57;;;;;;;;;;;15.90;91.00;;;;;;8396985;28;19935;-72
2022/05/15 00:58:06;;;;;;;;;;;15.90;91.00;;;;;;8382429;28;19931;-72
2022/05/15 01:02:11;;;;;;;;;;;15.80;91.00;;;;;;8377050;28;19931;-72
2022/05/15 01:06:13;;;;;;;;;;;15.80;91.10;;;;;;8385497;28;19920;-72
2022/05/15 01:10:15;;;;;;;;;;;15.70;91.10;;;;;;8368159;28;19939;-72
2022/05/15 01:14:18;;;;;;;;;;;15.70;91.10;;;;;;8387615;28;19921;-72
2022/05/15 01:18:21;;;;;;;;;;;15.70;91.10;;;;;;8371466;28;19928;-72
2022/05/15 01:22:23;;;;;;;;;;;15.60;91.20;;;;;;8370909;28;19921;-72
2022/05/15 01:26:25;;;;;;;;;;;15.60;91.10;;;;;;8397580;28;20329;-72
2022/05/15 01:30:27;;;;;;;;;;;15.50;91.10;;;;;;8370789;28;19935;-72
2022/05/15 01:34:29;;;;;;;;;;;15.50;91.10;;;;;;8373127;28;19978;-72
2022/05/15 01:38:30;;;;;;;;;;;15.40;91.20;;;;;;8377405;28;19972;-72
2022/05/15 01:42:32;;;;;;;;;;;15.40;91.20;;;;;;8384971;28;19920;-72
2022/05/15 01:46:33;;;;;;;;;;;15.30;91.50;;;;;;8417202;27;20368;-72
2022/05/15 01:50:35;;;;;;;;;;;15.30;91.20;;;;;;8371873;28;20042;-72
2022/05/15 01:54:38;;;;;;;;;;;15.30;91.30;;;;;;8410948;27;20383;-72
2022/05/15 01:58:40;;;;;;;;;;;15.20;91.20;;;;;;8383604;28;19931;-72
2022/05/15 02:02:42;;;;;;;;;;;15.20;91.20;;;;;;8393887;28;19939;-72
2022/05/15 02:06:43;;;;;;;;;;;15.20;91.30;;;;;;8383709;28;20270;-72
2022/05/15 02:10:45;;;;;;;;;;;15.10;91.20;;;;;;8406131;28;19955;-72
2022/05/15 02:14:47;;;;;;;;;;;15.10;91.20;;;;;;8381212;28;20287;-72
2022/05/15 02:18:48;;;;;;;;;;;15.00;91.30;;;;;;8398141;28;19947;-72
2022/05/15 02:22:50;;;;;;;;;;;15.00;91.30;;;;;;8367132;28;20253;-72
2022/05/15 02:26:52;;;;;;;;;;;14.90;91.30;;;;;;8381223;28;19932;-72
2022/05/15 02:30:54;;;;;;;;;;;14.90;91.30;;;;;;8369138;28;19943;-72
2022/05/15 02:34:55;;;;;;;;;;;14.80;91.30;;;;;;8363479;28;20078;-72
2022/05/15 02:38:57;;;;;;;;;;;14.80;91.30;;;;;;8386765;28;19959;-72
2022/05/15 02:42:59;;;;;;;;;;;14.70;91.30;;;;;;8392736;28;20320;-72
2022/05/15 02:47:00;;;;;;;;;;;14.70;91.40;;;;;;8385054;28;19950;-72
2022/05/15 02:51:05;;;;;;;;;;;14.60;91.40;;;;;;8371136;28;20239;-72
2022/05/15 02:55:07;;;;;;;;;;;14.60;91.40;;;;;;8383427;28;19921;-72
2022/05/15 02:59:09;;;;;;;;;;;14.60;91.40;;;;;;8367327;28;20147;-71
2022/05/15 03:03:10;;;;;;;;;;;14.50;91.40;;;;;;8375374;28;20382;-72
2022/05/15 03:07:13;;;;;;;;;;;14.50;91.40;;;;;;8381614;28;19927;-72
2022/05/15 03:11:15;;;;;;;;;;;14.40;91.30;;;;;;8370311;28;19956;-72
2022/05/15 03:15:17;;;;;;;;;;;14.40;91.40;;;;;;8386210;28;19932;-72
2022/05/15 03:19:18;;;;;;;;;;;14.40;91.40;;;;;;8380432;28;19955;-72
2022/05/15 03:23:20;;;;;;;;;;;14.30;91.40;;;;;;8384509;28;20364;-72
2022/05/15 03:27:21;;;;;;;;;;;14.20;91.30;;;;;;8385149;28;19928;-72
2022/05/15 03:31:23;;;;;;;;;;;14.10;91.30;;;;;;8384750;28;19950;-72
2022/05/15 03:35:25;;;;;;;;;;;14.10;91.40;;;;;;8382468;28;19924;-72
2022/05/15 03:39:26;;;;;;;;;;;14.00;91.40;;;;;;8377797;28;19936;-72
2022/05/15 03:43:28;;;;;;;;;;;13.90;91.40;;;;;;8369977;28;20339;-72
2022/05/15 03:47:29;;;;;;;;;;;13.90;91.50;;;;;;8370809;28;19928;-72
2022/05/15 03:51:32;;;;;;;;;;;13.80;91.50;;;;;;8384703;28;20008;-73
2022/05/15 03:55:33;;;;;;;;;;;13.90;91.60;;;;;;8396738;28;19928;-72
2022/05/15 03:59:38;;;;;;;;;;;13.80;91.60;;;;;;8377971;28;20620;-72
2022/05/15 04:03:39;;;;;;;;;;;13.80;91.70;;;;;;8384041;28;19927;-72
2022/05/15 04:07:45;;;;;;;;;;;13.80;91.70;;;;;;8369672;28;20321;-72
2022/05/15 04:11:47;;;;;;;;;;;13.80;91.80;;;;;;8378948;28;19921;-72
2022/05/15 04:15:49;;;;;;;;;;;13.90;91.90;;;;;;8390616;28;19939;-72
2022/05/15 04:19:50;;;;;;;;;;;13.90;92.00;;;;;;8381225;28;19924;-72
2022/05/15 04:23:52;;;;;;;;;;;13.90;92.10;;;;;;8370194;28;20291;-72
2022/05/15 04:27:54;;;;;;;;;;;14.00;92.20;;;;;;8386748;28;19972;-72
2022/05/15 04:31:56;;;;;;;;;;;14.00;92.20;;;;;;8386684;28;19924;-72
2022/05/15 04:35:58;;;;;;;;;;;14.10;92.40;;;;;;8399652;28;19920;-72
2022/05/15 04:40:00;;;;;;;;;;;14.00;92.40;;;;;;8390969;28;19929;-72
2022/05/15 04:44:01;;;;;;;;;;;14.00;92.50;;;;;;8388638;28;19931;-72
2022/05/15 04:48:03;;;;;;;;;;;14.10;92.70;;;;;;8380293;28;19971;-72
2022/05/15 04:52:05;;;;;;;;;;;14.10;92.80;;;;;;8385448;28;19928;-72
2022/05/15 04:56:06;;;;;;;;;;;14.10;92.90;;;;;;8382588;28;19927;-72
2022/05/15 05:00:10;;;;;;;;;;;14.20;93.00;;;;;;8398507;28;19932;-72
2022/05/15 05:04:12;;;;;;;;;;;14.30;93.20;;;;;;8383411;28;20144;-72
2022/05/15 05:08:13;;;;;;;;;;;14.40;93.30;;;;;;8370915;28;19936;-72
2022/05/15 05:12:15;;;;;;;;;;;14.50;93.50;;;;;;8379961;28;19920;-72
2022/05/15 05:16:17;;;;;;;;;;;14.60;93.70;;;;;;8373045;28;19921;-72
2022/05/15 05:20:18;;;;;;;;;;;14.70;93.90;;;;;;8372522;28;19925;-72
2022/05/15 05:24:21;;;;;;;;;;;14.80;94.00;;;;;;8367945;28;19928;-72
2022/05/15 05:28:23;;;;;;;;;;;14.90;94.20;;;;;;8380023;28;20226;-72
2022/05/15 05:32:24;;;;;;;;;;;15.00;94.40;;;;;;8372440;28;20018;-72
2022/05/15 05:36:26;;;;;;;;;;;15.10;94.50;;;;;;8376207;28;19935;-72
2022/05/15 05:40:28;;;;;;;;;;;15.20;94.60;;;;;;8368713;28;19931;-72
2022/05/15 05:44:30;;;;;;;;;;;15.30;94.70;;;;;;8379961;28;19964;-72
2022/05/15 05:48:31;;;;;;;;;;;15.40;94.90;;;;;;8381606;28;20399;-72
2022/05/15 05:52:33;;;;;;;;;;;15.50;95.00;;;;;;8383572;28;20380;-72
2022/05/15 05:56:35;;;;;;;;;;;15.60;95.20;;;;;;8408837;27;20013;-72
2022/05/15 06:00:39;;;;;;;;;;;15.70;95.40;;;;;;8378224;28;19947;-72
2022/05/15 06:04:44;;;;;;;;;;;15.80;95.60;;;;;;8373842;28;19920;-72
2022/05/15 06:08:46;;;;;;;;;;;15.90;95.70;;;;;;8394918;27;20380;-72
2022/05/15 06:12:48;;;;;;;;;;;16.00;95.80;;;;;;8358826;28;19959;-72
2022/05/15 06:16:49;;;;;;;;;;;16.10;95.90;;;;;;8360377;28;19928;-72
2022/05/15 06:20:51;;;;;;;;;;;16.20;96.00;;;;;;8358251;28;19932;-72
2022/05/15 06:24:53;;;;;;;;;;;16.20;96.10;;;;;;8363394;28;20324;-72
2022/05/15 06:28:54;;;;;;;;;;;16.30;96.30;;;;;;8355532;28;19979;-71
2022/05/15 06:32:56;;;;;;;;;;;16.40;96.30;;;;;;8355104;28;19925;-72
2022/05/15 06:36:59;;;;;;;;;;;16.50;96.40;;;;;;8358563;28;20288;-72
2022/05/15 06:41:00;;;;;;;;;;;16.60;96.50;;;;;;8355068;28;19964;-72
2022/05/15 06:45:03;;;;;;;;;;;16.70;96.70;;;;;;8358433;28;20345;-72
2022/05/15 06:49:08;;;;;;;;;;;16.90;97.00;;;;;;8358023;28;19926;-73
2022/05/15 06:53:11;;;;;;;;;;;17.00;97.00;;;;;;8357045;28;19928;-73
2022/05/15 06:57:28;;;;;;;;;;;17.10;97.10;;;;;;8362388;28;19928;-72
2022/05/15 07:01:30;;;;;;;;;;;17.20;97.20;;;;;;8348355;28;19924;-73
2022/05/15 07:05:32;;;;;;;;;;;17.40;97.50;;;;;;8370586;28;19975;-72
2022/05/15 07:09:34;;;;;;;;;;;17.50;97.60;;;;;;8375143;28;19920;-72
2022/05/15 07:13:36;;;;;;;;;;;17.60;97.70;;;;;;8377494;28;19994;-73
2022/05/15 07:17:38;;;;;;;;;;;17.70;97.80;;;;;;8369333;28;19920;-72
2022/05/15 07:21:39;;;;;;;;;;;17.80;98.00;;;;;;8363296;28;24564;-72
2022/05/15 07:25:42;;;;;;;;;;;18.00;98.20;;;;;;8363281;28;19924;-73
2022/05/15 07:29:44;;;;;;;;;;;18.10;98.30;;;;;;8362640;28;19935;-72
2022/05/15 07:33:46;;;;;;;;;;;18.20;98.40;;;;;;8352727;28;19921;-72
2022/05/15 07:37:48;;;;;;;;;;;18.40;98.50;;;;;;8361186;28;20005;-72
2022/05/15 07:41:51;;;;;;;;;;;18.50;98.70;;;;;;8358416;28;19959;-73
2022/05/15 07:45:52;;;;;;;;;;;18.60;98.70;;;;;;8372641;28;20271;-73
2022/05/15 07:49:54;;;;;;;;;;;18.70;98.80;;;;;;8368675;28;20384;-72
2022/05/15 07:53:56;;;;;;;;;;;18.80;98.80;;;;;;8367866;28;20046;-72
2022/05/15 07:57:57;;;;;;;;;;;18.90;99.00;;;;;;8410693;27;19921;-72
2022/05/15 08:02:02;;;;;;;;;;;19.00;99.20;;;;;;8373150;28;19952;-72
2022/05/15 08:10:24;;;;;;;;;;;19.30;99.50;;;;;;8371466;28;19928;-72
2022/05/15 08:14:28;;;;;;;;;;;19.40;99.60;;;;;;8371909;28;19928;-73
2022/05/15 08:27:12;;;;;;;;;;;19.60;99.50;;;;;;8359822;28;20173;-72
2022/05/15 08:31:14;;;;;;;;;;;19.70;99.70;;;;;;8355769;28;20298;-73
2022/05/15 08:35:15;;;;;;;;;;;19.90;99.80;;;;;;8360443;28;19963;-73
2022/05/15 08:39:17;;;;;;;;;;;20.00;99.70;;;;;;8363030;28;19929;-73
2022/05/15 08:43:21;;;;;;;;;;;20.10;99.80;;;;;;8363298;28;19963;-74
2022/05/15 08:47:31;;;;;;;;;;;20.20;99.90;;;;;;8365838;28;19931;-74
2022/05/15 08:51:33;;;;;;;;;;;20.30;99.90;;;;;;8356153;28;20347;-73
2022/05/15 08:55:37;;;;;;;;;;;20.40;99.90;;;;;;8354500;28;20302;-73
2022/05/15 08:59:45;;;;;;;;;;;20.50;99.80;;;;;;8352397;28;19967;-74
2022/05/15 09:03:48;;;;;;;;;;;20.60;99.80;;;;;;8361201;28;19932;-74
2022/05/15 09:07:49;;;;;;;;;;;20.60;99.70;;;;;;8355817;28;19920;-68
2022/05/15 09:12:10;;;;;;;;;;;20.80;99.80;;;;;;8387805;27;19948;-68
2022/05/15 09:16:16;;;;;;;;;;;20.80;99.70;;;;;;8356802;28;19963;-68
2022/05/15 09:20:21;;;;;;;7.38;3.17;;;20.90;99.70;;;;;;8358224;28;19967;-68
2022/05/15 09:24:46;;;;;;;7.30;3.63;;;21.00;99.70;;;;;;8356247;28;20075;-68
2022/05/15 09:29:01;;;;;;;6.25;2.97;;;21.00;99.40;;;;;;8354221;28;20140;-68
2022/05/15 09:33:03;;;;;;;6.07;3.25;;;21.10;99.50;;;;;;8358852;28;20048;-68
2022/05/15 09:46:10;;;;;;;;;;;21.30;98.50;;;;;;8355985;28;20395;-68
2022/05/15 09:50:30;;;;;;;;;;;21.40;98.50;;;;;;8355130;28;20330;-68
2022/05/15 09:54:37;;;;;;;;;;;21.40;98.20;;;;;;8355820;28;19928;-68
2022/05/15 09:58:44;;;;;;;;;;;21.50;98.40;;;;;;8356608;28;20000;-68
2022/05/15 10:02:47;;;;;;;;;;;21.70;98.10;;;;;;8353691;28;20226;-68
2022/05/15 10:06:50;;;;;;;;;;;21.70;98.00;;;;;;8367998;28;20310;-68
2022/05/15 10:10:57;;;;;;;;;;;21.80;98.00;;;;;;8351720;28;19920;-68
2022/05/15 10:15:05;;;;;;;;;;;21.90;98.00;;;;;;8353947;28;19932;-68
2022/05/15 10:19:09;;;;;;;;;;;22.00;97.80;;;;;;8353553;28;19924;-68
2022/05/15 10:23:13;;;;;;;;;;;22.00;97.40;;;;;;8355553;28;20376;-68
2022/05/15 10:27:26;;;;;;;;;;;22.10;97.70;;;;;;8352691;28;20399;-68
2022/05/15 10:31:37;;;;;;;;;;;22.20;97.80;;;;;;8354969;28;19940;-68
2022/05/15 10:35:42;;;;;;;;;;;22.30;97.80;;;;;;8355261;28;20306;-68
2022/05/15 10:40:01;;;;;;;;;;;22.40;97.60;;;;;;8357897;28;19929;-68
2022/05/15 10:44:20;;;;;;;;;;;22.50;97.30;;;;;;8348182;28;19967;-68
2022/05/15 10:48:32;;;;;;;;;;;22.60;97.30;;;;;;8354497;28;19959;-68
2022/05/15 10:52:37;;;;;;;;;;;22.70;96.80;;;;;;8387347;28;20360;-68
2022/05/15 11:01:19;;;;;;;;;;;22.80;96.20;;;;;;8351382;28;19948;-68
2022/05/15 11:05:38;;;;;;;;;;;22.80;95.90;;;;;;8353971;28;19925;-68
2022/05/15 11:09:43;;;;;;;;;;;22.80;95.80;;;;;;8351384;28;19925;-68
2022/05/15 11:14:10;;;;;;;;;;;22.90;96.00;;;;;;8350562;28;19933;-68
2022/05/15 11:18:21;;;;;;;;;;;23.00;95.70;;;;;;8372634;28;20016;-68
2022/05/15 11:22:32;;;;;;;;;;;23.10;95.80;;;;;;8358504;28;19920;-68
2022/05/15 11:26:41;;;;;;;;;;;23.20;95.30;;;;;;8355937;28;19924;-68
2022/05/15 11:30:45;;;;;;;;;;;23.30;95.20;;;;;;8353461;28;19935;-68
2022/05/15 11:35:01;;;;;;;;;;;23.50;94.90;;;;;;8354416;28;20681;-68
2022/05/15 11:39:05;;;;;;;;;;;23.70;94.90;;;;;;8354686;28;19920;-68
2022/05/15 11:43:26;;;;;;;;;;;24.00;95.20;;;;;;8354178;28;20466;-68
2022/05/15 11:47:31;;;;;;;;;;;24.10;95.10;;;;;;8371542;28;19939;-68
2022/05/15 11:51:34;;;;;;;;;;;24.20;95.20;;;;;;8371016;28;19924;-68
2022/05/15 11:55:35;;;;;;;;;;;24.20;94.90;;;;;;8353251;28;20190;-68
2022/05/15 11:59:49;;;;;;;;;;;24.10;94.10;;;;;;8350048;28;19999;-68
2022/05/15 12:03:56;;;;;;;;;;;24.10;93.60;;;;;;8354476;28;19921;-68
2022/05/15 12:08:07;;;;;;;;;;;24.00;93.40;;;;;;8354561;28;19925;-68
2022/05/15 12:12:21;;;;;;;;;;;24.00;87.90;;;;;;8354307;28;20380;-68
2022/05/15 12:16:22;;;;;;;;;;;24.00;92.20;;;;;;8381047;28;19955;-68
2022/05/15 12:20:28;;;;;;;;;;;24.00;92.50;;;;;;8347919;28;20283;-68
2022/05/15 12:24:33;;;;;;;;;;;24.00;92.50;;;;;;8352391;28;19925;-68
2022/05/15 12:28:52;;;;;;;;;;;24.00;91.70;;;;;;8350455;28;19955;-68
2022/05/15 12:33:03;;;;;;;;;;;24.00;91.50;;;;;;8373776;28;20516;-68
2022/05/15 12:37:06;;;;;;;;;;;24.10;91.70;;;;;;8357194;28;20663;-68
2022/05/15 12:41:12;;;;;;;;;;;24.20;92.00;;;;;;8360356;28;20364;-68
2022/05/15 12:45:19;;;;;;;;;;;24.30;92.00;;;;;;8374646;28;19940;-68
2022/05/15 12:49:28;;;;;;;;;;;24.40;91.90;;;;;;8358092;28;19925;-68
2022/05/15 12:53:31;;;;;;;;;;;24.40;91.70;;;;;;8360598;28;20198;-68
2022/05/15 12:57:47;;;;;;;;;;;24.50;91.70;;;;;;8356396;28;19936;-68
2022/05/15 13:01:49;;;;;;;;;;;24.60;91.50;;;;;;8376234;28;19936;-68
2022/05/15 13:05:52;;;;;;;;;;;24.60;90.70;;;;;;8359036;28;19974;-68
2022/05/15 13:09:59;;;;;;;;;;;24.60;90.10;;;;;;8355446;28;19932;-68
2022/05/15 13:14:01;;;;;;;;;;;24.60;90.20;;;;;;8355535;28;21221;-68
2022/05/15 13:18:04;;;;;;;;;;;24.70;90.30;;;;;;8357180;28;20031;-67
2022/05/15 13:22:06;;;;;;;;;;;24.80;89.90;;;;;;8359142;28;19929;-68
2022/05/15 13:26:10;;;;;;;;;;;24.80;89.90;;;;;;8358689;28;19932;-68
2022/05/15 13:30:18;;;;;;;;;;;24.80;89.40;;;;;;8355352;28;19936;-68
2022/05/15 13:34:23;;;;;;;;;;;24.90;89.00;;;;;;8356488;28;19921;-67
2022/05/15 13:38:27;;;;;;;;;;;25.00;89.10;;;;;;8357869;28;19921;-67
2022/05/15 13:46:58;;;;;;;;;;;25.20;88.30;;;;;;8357918;28;19925;-67
2022/05/15 13:51:00;;;;;;;;;;;25.20;87.10;;;;;;8357057;28;19959;-68
2022/05/15 13:55:04;;;;;;;;;;;25.20;86.00;;;;;;8372824;28;19931;-67
2022/05/15 13:59:28;;;;;;;;;;;25.20;86.50;;;;;;8354715;28;20288;-68
2022/05/15 14:03:31;;;;;;;;;;;25.30;83.40;;;;;;8353244;28;19929;-68
2022/05/15 14:07:34;;;;;;;;;;;25.30;85.20;;;;;;8350328;28;19921;-68
2022/05/15 14:11:47;;;;;;;;;;;25.40;85.60;;;;;;8351067;28;19920;-68
2022/05/15 14:15:51;;;;;;;;;;;25.40;85.50;;;;;;8349356;28;20460;-68
2022/05/15 14:19:55;;;;;;;;;;;25.50;85.20;;;;;;8350514;28;19953;-68
2022/05/15 14:23:57;;;;;;;;;;;25.50;85.00;;;;;;8353484;28;19940;-68
2022/05/15 14:27:58;;;;;;;;;;;25.50;84.80;;;;;;8352124;28;19925;-68
2022/05/15 14:32:03;;;;;;;;;;;25.60;82.90;;;;;;8351949;28;19931;-68
2022/05/15 14:36:13;;;;;;;;;;;25.70;82.30;;;;;;8368660;28;20372;-68
2022/05/15 14:40:15;;;;;;;;;;;25.90;84.40;;;;;;8350768;28;19924;-68
2022/05/15 14:44:16;;;;;;;;;;;26.10;85.30;;;;;;8351208;28;19924;-68
2022/05/15 14:48:19;;;;;;;;;;;26.20;85.70;;;;;;8352096;28;19928;-68
2022/05/15 14:52:24;;;;;;;;;;;26.10;81.90;;;;;;8349986;28;19928;-68
2022/05/15 14:56:27;;;;;;;;;;;26.10;81.70;;;;;;8366865;28;19960;-68
2022/05/15 15:00:31;;;;;;;;;;;26.00;80.80;;;;;;8364482;28;19925;-68
2022/05/15 15:04:33;;;;;;;;;;;26.00;80.80;;;;;;8350998;28;20410;-68
2022/05/15 15:08:34;;;;;;;;;;;26.10;79.90;;;;;;8366586;28;19964;-68
2022/05/15 15:12:36;;;;;;;;;;;26.10;79.60;;;;;;8350909;28;19928;-68
2022/05/15 15:16:40;;;;;;;;;;;26.10;78.60;;;;;;8353168;28;19920;-68
2022/05/15 15:20:41;;;;;;;;;;;26.20;78.20;;;;;;8349071;28;20028;-68
2022/05/15 15:24:43;;;;;;;;;;;26.30;78.20;;;;;;8353366;28;20263;-68
2022/05/15 15:28:47;;;;;;;;;;;26.30;78.30;;;;;;8349989;28;20284;-68
2022/05/15 15:32:48;;;;;;;;;;;26.50;78.30;;;;;;8352287;28;20284;-68
2022/05/15 15:38:14;;;;;;;;;;;26.70;78.80;;;;;;8385185;28;19939;-68
2022/05/15 15:41:12;;;;;;;;;;;26.70;78.10;;;;;;8350783;28;19931;-68
2022/05/15 15:45:14;;;;;;;;;;;26.80;77.60;;;;;;8368663;28;19920;-68
2022/05/15 15:49:17;;;;;;;;;;;26.90;77.80;;;;;;8365383;28;19925;-68
2022/05/15 15:53:20;;;;;;;;;;;27.10;77.40;;;;;;8364619;28;20395;-68
2022/05/15 15:57:22;;;;;;;;;;;27.50;77.90;;;;;;8362734;28;20364;-68
2022/05/15 16:01:25;;;;;;;;;;;28.10;78.40;;;;;;8365919;28;19952;-68
2022/05/15 16:05:27;;;;;;;;;;;28.70;79.80;;;;;;8348620;28;19947;-68
2022/05/15 16:09:29;;;;;;;;;;;29.40;80.60;;;;;;8357236;28;19972;-68
2022/05/15 16:13:31;;;;;;;;;;;29.90;80.00;;;;;;8358528;28;19935;-68
2022/05/15 16:17:32;;;;;;;;;;;30.30;81.20;;;;;;8357446;28;19928;-68
2022/05/15 16:21:37;;;;;;;;;;;30.80;81.40;;;;;;8358302;28;20284;-69
2022/05/15 16:25:39;;;;;;;;;;;31.20;82.10;;;;;;8357214;28;20347;-69
2022/05/15 16:29:43;;;;;;;;;;;31.50;82.10;;;;;;8354724;28;20331;-69
2022/05/15 16:33:45;;;;;;;;;;;31.80;81.70;;;;;;8373687;28;19935;-68
2022/05/15 16:37:46;;;;;;;;;;;31.90;80.30;;;;;;8359924;28;19924;-68
2022/05/15 16:41:48;;;;;;;;;;;32.00;79.00;;;;;;8356614;28;19983;-68
2022/05/15 16:45:49;;;;;;;;;;;32.00;77.60;;;;;;8358433;28;19935;-69
2022/05/15 16:49:52;;;;;;;;;;;31.90;75.50;;;;;;8356995;28;20381;-69
2022/05/15 16:53:54;;;;;;;;;;;31.80;74.50;;;;;;8355943;28;19955;-69
2022/05/15 16:57:55;;;;;;;;;;;31.80;74.20;;;;;;8351949;28;20109;-69
2022/05/15 17:01:57;;;;;;;;;;;31.80;73.80;;;;;;8350301;28;19959;-69
2022/05/15 17:05:59;;;;;;;;;;;31.90;73.30;;;;;;8355516;28;19928;-69
2022/05/15 17:10:00;;;;;;;;;;;31.90;72.60;;;;;;8355369;28;20018;-69
2022/05/15 17:14:02;;;;;;;;;;;31.70;71.40;;;;;;8355869;28;25141;-69
2022/05/15 17:18:05;;;;;;;;;;;31.60;70.70;;;;;;8349664;28;19929;-69
2022/05/15 17:22:06;;;;;;;;;;;31.50;69.90;;;;;;8352336;28;19921;-69
2022/05/15 17:26:08;;;;;;;;;;;31.40;69.70;;;;;;8356021;28;19955;-69
2022/05/15 17:34:31;;;;;;;;;;;30.90;68.90;;;;;;8356180;28;20355;-69
2022/05/15 17:38:33;;;;;;;;;;;30.50;68.40;;;;;;8368771;28;20333;-69
2022/05/15 17:42:37;;;;;;;;;;;30.10;67.60;;;;;;8352973;28;20316;-68
2022/05/15 17:46:40;;;;;;;;;;;29.70;66.10;;;;;;8356242;28;19962;-68
2022/05/15 17:50:45;;;;;;;;;;;29.30;64.90;;;;;;8354148;28;20265;-69
2022/05/15 17:54:47;;;;;;;;;;;29.00;64.20;;;;;;8357073;28;19968;-69
2022/05/15 17:58:50;;;;;;;;;;;28.70;63.30;;;;;;8385932;27;20526;-68
2022/05/15 18:02:53;;;;;;;;;;;28.50;62.60;;;;;;8386986;27;19933;-68
2022/05/15 18:06:54;;;;;;;;;;;28.30;62.00;;;;;;8355805;28;19925;-68
2022/05/15 18:10:57;;;;;;;;;;;28.10;61.30;;;;;;8370570;28;19927;-68
2022/05/15 18:14:58;;;;;;;;;;;28.00;61.00;;;;;;8354836;28;19951;-68
2022/05/15 18:19:00;;;;;;;;;;;28.00;61.00;;;;;;8353771;28;19925;-68
2022/05/15 18:23:02;;;;;;;;;;;28.10;61.30;;;;;;8349505;28;25065;-68
2022/05/15 18:27:04;;;;;;;;;;;28.10;61.00;;;;;;8348003;28;24152;-68
2022/05/15 18:31:05;;;;;;;;;;;27.80;60.40;;;;;;8353217;28;20284;-68
2022/05/15 18:35:08;;;;;;;;;;;27.60;60.00;;;;;;8352582;28;19924;-68
2022/05/15 18:39:10;;;;;;;;;;;27.30;59.70;;;;;;8351510;28;20283;-68
2022/05/15 18:43:13;;;;;;;;;;;27.10;59.40;;;;;;8353527;28;25146;-68
2022/05/15 18:47:15;;;;;;;;;;;26.90;59.20;;;;;;8349180;28;19983;-67
2022/05/15 18:55:39;;;;;;;;;;;26.40;59.00;;;;;;8354426;28;19931;-67
2022/05/15 18:59:40;;;;;;;;;;;26.20;59.00;;;;;;8352886;28;19963;-68
2022/05/15 19:03:43;;;;;;;;;;;26.00;59.00;;;;;;8370304;28;19939;-67
2022/05/15 19:07:44;;;;;;;;;;;25.80;59.10;;;;;;8353626;28;19956;-67
2022/05/15 19:11:46;;;;;;;;;;;25.60;59.00;;;;;;8349132;28;19979;-67
2022/05/15 19:15:48;;;;;;;;;;;25.50;58.90;;;;;;8350784;28;19924;-68
2022/05/15 19:19:50;;;;;;;;;;;25.40;58.80;;;;;;8369356;28;19921;-68
2022/05/15 19:23:51;;;;;;;;;;;25.20;58.60;;;;;;8350371;28;20126;-67
2022/05/15 19:27:53;;;;;;;;;;;25.10;58.70;;;;;;8377840;28;19924;-67
2022/05/15 19:31:54;;;;;;;;;;;25.00;58.80;;;;;;8368122;28;20028;-67
2022/05/15 19:35:57;;;;;;;;;;;24.80;58.90;;;;;;8351392;28;19924;-67
2022/05/15 19:39:59;;;;;;;;;;;24.70;59.00;;;;;;8353196;28;20368;-68
2022/05/15 19:44:00;;;;;;;;;;;24.50;58.90;;;;;;8364051;28;19928;-68
2022/05/15 19:48:02;;;;;;;;;;;24.40;59.00;;;;;;8352527;28;19929;-68
2022/05/15 19:52:05;;;;;;;;;;;24.30;59.00;;;;;;8351086;28;19932;-68
2022/05/15 19:56:23;;;;;;;;;;;24.20;59.00;;;;;;8351718;28;20403;-68
2022/05/15 20:00:26;;;;;;;;;;;24.10;59.00;;;;;;8353031;28;19928;-68
2022/05/15 20:04:28;;;;;;;;;;;24.00;59.00;;;;;;8353476;28;25066;-68
2022/05/15 20:12:50;;;;;;;;;;;23.90;59.10;;;;;;8351323;28;19925;-68
2022/05/15 20:16:51;;;;;;;;;;;23.70;59.10;;;;;;8349588;28;19944;-68
2022/05/15 20:20:53;;;;;;;;;;;23.60;59.20;;;;;;8353710;28;19935;-68
2022/05/15 20:24:55;;;;;;;;;;;23.50;59.00;;;;;;8348779;28;20699;-68
2022/05/15 20:28:57;;;;;;;;;;;23.50;59.00;;;;;;8352788;28;19929;-68
2022/05/15 20:32:58;;;;;;;;;;;23.40;58.70;;;;;;8367159;28;19971;-68
2022/05/15 20:37:00;;;;;;;;;;;23.40;58.70;;;;;;8350289;28;19928;-68
2022/05/15 20:41:03;;;;;;;;;;;23.30;58.50;;;;;;8365269;28;19932;-68
2022/05/15 20:45:05;;;;;;;;;;;23.20;58.50;;;;;;8346903;28;20300;-68
2022/05/15 20:49:07;;;;;;;;;;;23.20;58.40;;;;;;8346465;28;19936;-68
2022/05/15 20:53:09;;;;;;;;;;;23.00;58.30;;;;;;8349939;28;20360;-68
2022/05/15 20:57:10;;;;;;;;;;;23.00;58.30;;;;;;8352682;28;20388;-68
2022/05/15 21:01:14;;;;;;;;;;;22.90;58.20;;;;;;8354864;28;20469;-68
2022/05/15 21:05:16;;;;;;;;;;;22.90;58.20;;;;;;8379733;28;20366;-68
2022/05/15 21:09:17;;;;;;;;;;;22.90;58.20;;;;;;8372790;28;19925;-68
2022/05/15 21:13:19;;;;;;;;;;;22.80;58.20;;;;;;8365790;28;19932;-68
2022/05/15 21:17:21;;;;;;;;;;;22.70;58.10;;;;;;8374414;28;19955;-68
2022/05/15 21:21:23;;;;;;;;;;;22.80;58.30;;;;;;8379880;28;20380;-68
2022/05/15 21:25:25;;;;;;;;;;;22.70;58.20;;;;;;8391268;28;19959;-68
2022/05/15 21:29:27;;;;;;;;;;;22.70;58.20;;;;;;8371960;28;19991;-68
2022/05/15 21:33:28;;;;;;;;;;;22.70;58.30;;;;;;8372037;28;20306;-68
2022/05/15 21:37:30;;;;;;;;;;;22.60;58.30;;;;;;8369822;28;19928;-68
2022/05/15 21:45:53;;;;;;;;;;;22.60;58.40;;;;;;8385780;28;19963;-68
2022/05/15 21:49:56;;;;;;;;;;;22.50;58.40;;;;;;8388529;28;19928;-68
2022/05/15 21:53:58;;;;;;;;;;;22.50;59.00;;;;;;8384696;28;19925;-68
2022/05/15 21:57:59;;;;;;;;;;;22.50;58.50;;;;;;8399242;27;19939;-68
2022/05/15 22:02:01;;;;;;;;;;;22.50;58.60;;;;;;8368235;28;19924;-68
2022/05/15 22:06:02;;;;;;;;;;;22.50;58.60;;;;;;8372828;28;20066;-68
2022/05/15 22:10:05;;;;;;;;;;;22.40;58.60;;;;;;8393253;28;20054;-68
2022/05/15 22:14:06;;;;;;;;;;;22.30;58.70;;;;;;8388789;28;19924;-68
2022/05/15 22:18:08;;;;;;;;;;;22.30;58.80;;;;;;8384406;28;19944;-68
2022/05/15 22:22:09;;;;;;;;;;;22.20;58.80;;;;;;8380805;28;19932;-68
2022/05/15 22:26:11;;;;;;;;;;;22.20;58.90;;;;;;8380047;28;19952;-68
2022/05/15 22:30:13;;;;;;;;;;;22.20;59.00;;;;;;8371827;28;19975;-68
2022/05/15 22:34:15;;;;;;;;;;;22.10;59.10;;;;;;8386711;28;20304;-67
2022/05/15 22:38:17;;;;;;;;;;;22.10;59.00;;;;;;8361530;28;19928;-68
2022/05/15 22:42:19;;;;;;;;;;;22.00;59.00;;;;;;8376684;28;19940;-68
2022/05/15 22:46:22;;;;;;;;;;;22.00;59.20;;;;;;8361460;28;20741;-68
2022/05/15 22:50:24;;;;;;;;;;;21.90;59.30;;;;;;8375654;28;19935;-68
2022/05/15 22:54:25;;;;;;;;;;;21.90;59.40;;;;;;8387696;28;20337;-68
2022/05/15 22:58:27;;;;;;;;;;;21.70;59.40;;;;;;8384167;28;19924;-68
2022/05/15 23:02:29;;;;;;;;;;;21.70;59.50;;;;;;8370435;28;20398;-68
2022/05/15 23:10:51;;;;;;;;;;;21.60;59.70;;;;;;8375029;28;19939;-68
2022/05/15 23:14:52;;;;;;;;;;;21.50;59.70;;;;;;8365760;28;19939;-68
2022/05/15 23:18:54;;;;;;;;;;;21.40;59.80;;;;;;8378256;28;19932;-68
2022/05/15 23:22:56;;;;;;;;;;;21.40;60.00;;;;;;8388132;28;20376;-68
2022/05/15 23:26:57;;;;;;;;;;;21.40;60.10;;;;;;8387072;28;19933;-68
2022/05/15 23:30:59;;;;;;;;;;;21.30;60.20;;;;;;8370182;28;20283;-68
2022/05/15 23:35:03;;;;;;;;;;;21.30;60.30;;;;;;8373525;28;19931;-68
2022/05/15 23:39:05;;;;;;;;;;;21.20;60.30;;;;;;8374021;28;19932;-68
2022/05/15 23:43:06;;;;;;;;;;;21.20;60.40;;;;;;8372958;28;19924;-68
2022/05/15 23:47:09;;;;;;;;;;;21.20;60.50;;;;;;8369548;28;19932;-68
2022/05/15 23:51:10;;;;;;;;;;;21.10;60.60;;;;;;8375319;28;19924;-67
2022/05/15 23:55:12;;;;;;;;;;;21.10;60.70;;;;;;8375785;28;19962;-68
2022/05/15 23:59:14;;;;;;;;;;;21.00;60.70;;;;;;8365117;28;19979;-68
